sensor_id;sensor_type;location;lat;lon;timestamp;pressure;altitude;pressure_sealevel;temperature;humidity
29239;BME280;16267;48.194;11.546;2023-05-23T00:02:05;95665.97;;;19.11;67.11
29239;BME280;16267;48.194;11.546;2023-05-23T00:04:34;95655.28;;;19.08;67.40
29239;BME280;16267;48.194;11.546;2023-05-23T00:07:02;95659.69;;;19.05;67.73
29239;BME280;16267;48.194;11.546;2023-05-23T00:09:28;95661.34;;;19.03;67.49
29239;BME280;16267;48.194;11.546;2023-05-23T00:11:54;95668.00;;;19.02;67.75
29239;BME280;16267;48.194;11.546;2023-05-23T00:14:20;95666.22;;;18.99;67.50
29239;BME280;16267;48.194;11.546;2023-05-23T00:16:46;95664.69;;;18.98;67.55
29239;BME280;16267;48.194;11.546;2023-05-23T00:19:14;95671.38;;;18.97;67.53
29239;BME280;16267;48.194;11.546;2023-05-23T00:21:45;95664.13;;;18.93;67.97
29239;BME280;16267;48.194;11.546;2023-05-23T00:24:15;95665.81;;;18.91;68.18
29239;BME280;16267;48.194;11.546;2023-05-23T00:26:45;95672.44;;;18.90;68.33
29239;BME280;16267;48.194;11.546;2023-05-23T00:29:11;95664.03;;;18.88;68.35
29239;BME280;16267;48.194;11.546;2023-05-23T00:31:42;95669.16;;;18.86;68.40
29239;BME280;16267;48.194;11.546;2023-05-23T00:34:12;95677.50;;;18.82;68.26
29239;BME280;16267;48.194;11.546;2023-05-23T00:36:39;95667.81;;;18.81;68.22
29239;BME280;16267;48.194;11.546;2023-05-23T00:39:06;95664.84;;;18.79;68.39
29239;BME280;16267;48.194;11.546;2023-05-23T00:41:33;95663.78;;;18.77;68.60
29239;BME280;16267;48.194;11.546;2023-05-23T00:43:59;95660.44;;;18.72;68.35
29239;BME280;16267;48.194;11.546;2023-05-23T00:46:26;95665.13;;;18.72;68.67
29239;BME280;16267;48.194;11.546;2023-05-23T00:48:52;95664.38;;;18.71;68.31
29239;BME280;16267;48.194;11.546;2023-05-23T00:51:19;95659.69;;;18.72;68.31
29239;BME280;16267;48.194;11.546;2023-05-23T00:53:45;95666.34;;;18.71;68.30
29239;BME280;16267;48.194;11.546;2023-05-23T00:56:11;95667.56;;;18.70;68.69
29239;BME280;16267;48.194;11.546;2023-05-23T00:58:38;95676.94;;;18.69;68.78
29239;BME280;16267;48.194;11.546;2023-05-23T01:01:05;95672.41;;;18.66;68.78
29239;BME280;16267;48.194;11.546;2023-05-23T01:03:32;95669.69;;;18.66;68.88
29239;BME280;16267;48.194;11.546;2023-05-23T01:05:58;95676.34;;;18.65;68.68
29239;BME280;16267;48.194;11.546;2023-05-23T01:08:23;95667.44;;;18.64;68.70
29239;BME280;16267;48.194;11.546;2023-05-23T01:10:50;95673.34;;;18.63;68.79
29239;BME280;16267;48.194;11.546;2023-05-23T01:13:29;95677.44;;;18.58;68.74
29239;BME280;16267;48.194;11.546;2023-05-23T01:16:29;95674.72;;;18.58;68.70
29239;BME280;16267;48.194;11.546;2023-05-23T01:19:15;95678.34;;;18.55;68.88
29239;BME280;16267;48.194;11.546;2023-05-23T01:21:43;95680.31;;;18.55;69.04
29239;BME280;16267;48.194;11.546;2023-05-23T01:24:35;95680.03;;;18.53;69.15
29239;BME280;16267;48.194;11.546;2023-05-23T01:30:18;95683.97;;;18.52;69.22
29239;BME280;16267;48.194;11.546;2023-05-23T01:32:50;95681.38;;;18.48;69.41
29239;BME280;16267;48.194;11.546;2023-05-23T01:35:24;95674.47;;;18.47;69.55
29239;BME280;16267;48.194;11.546;2023-05-23T01:37:54;95683.06;;;18.45;69.61
29239;BME280;16267;48.194;11.546;2023-05-23T01:40:21;95692.44;;;18.44;69.61
29239;BME280;16267;48.194;11.546;2023-05-23T01:42:47;95688.97;;;18.44;69.46
29239;BME280;16267;48.194;11.546;2023-05-23T01:45:14;95688.22;;;18.43;69.67
29239;BME280;16267;48.194;11.546;2023-05-23T01:47:41;95685.94;;;18.42;69.53
29239;BME280;16267;48.194;11.546;2023-05-23T01:50:08;95695.31;;;18.41;69.54
29239;BME280;16267;48.194;11.546;2023-05-23T01:52:35;95697.72;;;18.39;69.68
29239;BME280;16267;48.194;11.546;2023-05-23T01:55:05;95702.41;;;18.38;69.40
29239;BME280;16267;48.194;11.546;2023-05-23T01:57:36;95704.38;;;18.38;69.50
29239;BME280;16267;48.194;11.546;2023-05-23T02:00:04;95707.56;;;18.36;69.78
29239;BME280;16267;48.194;11.546;2023-05-23T02:02:32;95705.31;;;18.35;69.94
29239;BME280;16267;48.194;11.546;2023-05-23T02:04:59;95705.75;;;18.33;69.96
29239;BME280;16267;48.194;11.546;2023-05-23T02:07:25;95705.91;;;18.30;70.30
29239;BME280;16267;48.194;11.546;2023-05-23T02:09:51;95710.31;;;18.27;70.42
29239;BME280;16267;48.194;11.546;2023-05-23T02:12:16;95715.00;;;18.26;70.61
29239;BME280;16267;48.194;11.546;2023-05-23T02:14:42;95711.97;;;18.24;70.74
29239;BME280;16267;48.194;11.546;2023-05-23T02:17:08;95712.41;;;18.23;70.81
29239;BME280;16267;48.194;11.546;2023-05-23T02:19:35;95706.72;;;18.21;71.12
29239;BME280;16267;48.194;11.546;2023-05-23T02:22:01;95712.13;;;18.21;71.18
29239;BME280;16267;48.194;11.546;2023-05-23T02:24:27;95713.34;;;18.20;70.96
29239;BME280;16267;48.194;11.546;2023-05-23T02:26:53;95706.41;;;18.19;71.31
29239;BME280;16267;48.194;11.546;2023-05-23T02:29:19;95710.31;;;18.18;71.25
29239;BME280;16267;48.194;11.546;2023-05-23T02:31:45;95709.56;;;18.17;71.31
29239;BME280;16267;48.194;11.546;2023-05-23T02:34:11;95715.47;;;18.16;71.03
29239;BME280;16267;48.194;11.546;2023-05-23T02:36:36;95719.84;;;18.13;71.57
29239;BME280;16267;48.194;11.546;2023-05-23T02:39:04;95716.81;;;18.11;71.66
29239;BME280;16267;48.194;11.546;2023-05-23T02:41:30;95721.94;;;18.09;71.83
29239;BME280;16267;48.194;11.546;2023-05-23T02:43:57;95721.19;;;18.09;71.92
29239;BME280;16267;48.194;11.546;2023-05-23T02:46:23;95719.41;;;18.05;72.01
29239;BME280;16267;48.194;11.546;2023-05-23T02:48:49;95725.44;;;18.00;72.49
29239;BME280;16267;48.194;11.546;2023-05-23T02:51:15;95723.94;;;17.99;72.47
29239;BME280;16267;48.194;11.546;2023-05-23T02:53:41;95727.84;;;17.98;72.42
29239;BME280;16267;48.194;11.546;2023-05-23T02:56:07;95722.59;;;17.95;72.93
29239;BME280;16267;48.194;11.546;2023-05-23T02:58:33;95726.03;;;17.95;72.64
29239;BME280;16267;48.194;11.546;2023-05-23T03:01:02;95721.09;;;17.94;72.48
29239;BME280;16267;48.194;11.546;2023-05-23T03:03:28;95721.84;;;17.94;72.34
29239;BME280;16267;48.194;11.546;2023-05-23T03:05:56;95726.50;;;17.94;72.90
29239;BME280;16267;48.194;11.546;2023-05-23T03:08:23;95713.38;;;17.92;72.73
29239;BME280;16267;48.194;11.546;2023-05-23T03:10:49;95725.47;;;17.91;72.25
29239;BME280;16267;48.194;11.546;2023-05-23T03:13:15;95732.84;;;17.91;73.07
29239;BME280;16267;48.194;11.546;2023-05-23T03:15:41;95727.13;;;17.89;73.18
29239;BME280;16267;48.194;11.546;2023-05-23T03:18:07;95731.06;;;17.88;73.30
29239;BME280;16267;48.194;11.546;2023-05-23T03:20:32;95727.28;;;17.85;73.87
29239;BME280;16267;48.194;11.546;2023-05-23T03:22:58;95729.22;;;17.84;73.65
29239;BME280;16267;48.194;11.546;2023-05-23T03:25:24;95734.38;;;17.82;74.10
29239;BME280;16267;48.194;11.546;2023-05-23T03:27:50;95723.19;;;17.80;73.61
29239;BME280;16267;48.194;11.546;2023-05-23T03:30:16;95732.84;;;17.81;73.82
29239;BME280;16267;48.194;11.546;2023-05-23T03:32:42;95734.81;;;17.81;73.68
29239;BME280;16267;48.194;11.546;2023-05-23T03:35:08;95738.75;;;17.80;73.53
29239;BME280;16267;48.194;11.546;2023-05-23T03:37:34;95736.91;;;17.77;74.69
29239;BME280;16267;48.194;11.546;2023-05-23T03:40:00;95734.19;;;17.77;74.17
29239;BME280;16267;48.194;11.546;2023-05-23T03:42:27;95735.38;;;17.76;74.11
29239;BME280;16267;48.194;11.546;2023-05-23T03:44:53;95734.63;;;17.75;74.17
29239;BME280;16267;48.194;11.546;2023-05-23T03:47:18;95739.31;;;17.75;73.81
29239;BME280;16267;48.194;11.546;2023-05-23T03:49:44;95741.28;;;17.74;74.31
29239;BME280;16267;48.194;11.546;2023-05-23T03:52:10;95744.00;;;17.74;74.41
29239;BME280;16267;48.194;11.546;2023-05-23T03:54:36;95746.72;;;17.74;74.33
29239;BME280;16267;48.194;11.546;2023-05-23T03:57:02;95751.38;;;17.74;74.11
29239;BME280;16267;48.194;11.546;2023-05-23T03:59:28;95745.19;;;17.73;74.38
29239;BME280;16267;48.194;11.546;2023-05-23T04:01:54;95740.97;;;17.72;74.16
29239;BME280;16267;48.194;11.546;2023-05-23T04:04:23;95737.81;;;17.74;74.51
29239;BME280;16267;48.194;11.546;2023-05-23T04:06:50;95740.97;;;17.72;74.77
29239;BME280;16267;48.194;11.546;2023-05-23T04:09:16;95747.91;;;17.73;74.59
29239;BME280;16267;48.194;11.546;2023-05-23T04:11:42;95749.56;;;17.71;74.88
29239;BME280;16267;48.194;11.546;2023-05-23T04:14:08;95750.78;;;17.70;75.41
29239;BME280;16267;48.194;11.546;2023-05-23T04:16:36;95754.97;;;17.71;75.71
29239;BME280;16267;48.194;11.546;2023-05-23T04:19:02;95758.47;;;17.71;75.16
29239;BME280;16267;48.194;11.546;2023-05-23T04:21:29;95758.47;;;17.71;75.19
29239;BME280;16267;48.194;11.546;2023-05-23T04:23:55;95760.72;;;17.73;75.48
29239;BME280;16267;48.194;11.546;2023-05-23T04:26:21;95769.63;;;17.73;76.48
29239;BME280;16267;48.194;11.546;2023-05-23T04:28:47;95765.41;;;17.72;76.55
29239;BME280;16267;48.194;11.546;2023-05-23T04:31:13;95766.16;;;17.73;76.13
29239;BME280;16267;48.194;11.546;2023-05-23T04:33:39;95773.97;;;17.71;76.69
29239;BME280;16267;48.194;11.546;2023-05-23T04:36:06;95764.03;;;17.68;77.68
29239;BME280;16267;48.194;11.546;2023-05-23T04:38:35;95767.06;;;17.70;77.38
29239;BME280;16267;48.194;11.546;2023-05-23T04:41:06;95770.81;;;17.72;77.18
29239;BME280;16267;48.194;11.546;2023-05-23T04:43:32;95769.16;;;17.75;77.28
29239;BME280;16267;48.194;11.546;2023-05-23T04:45:59;95776.09;;;17.76;76.97
29239;BME280;16267;48.194;11.546;2023-05-23T04:48:25;95781.44;;;17.79;76.50
29239;BME280;16267;48.194;11.546;2023-05-23T04:50:52;95783.22;;;17.82;76.46
29239;BME280;16267;48.194;11.546;2023-05-23T04:53:21;95783.50;;;17.84;77.30
29239;BME280;16267;48.194;11.546;2023-05-23T04:55:47;95778.88;;;17.85;77.79
29239;BME280;16267;48.194;11.546;2023-05-23T04:58:13;95784.13;;;17.89;78.79
29239;BME280;16267;48.194;11.546;2023-05-23T05:00:39;95782.91;;;17.90;78.01
29239;BME280;16267;48.194;11.546;2023-05-23T05:03:04;95782.31;;;17.95;78.51
29239;BME280;16267;48.194;11.546;2023-05-23T05:05:30;95786.09;;;17.97;77.58
29239;BME280;16267;48.194;11.546;2023-05-23T05:07:56;95786.41;;;17.99;78.13
29239;BME280;16267;48.194;11.546;2023-05-23T05:10:22;95794.69;;;18.05;78.80
29239;BME280;16267;48.194;11.546;2023-05-23T05:12:47;95791.81;;;18.09;78.50
29239;BME280;16267;48.194;11.546;2023-05-23T05:15:17;95792.56;;;18.09;79.35
29239;BME280;16267;48.194;11.546;2023-05-23T05:17:43;95781.84;;;18.05;79.59
29239;BME280;16267;48.194;11.546;2023-05-23T05:20:10;95786.06;;;18.06;79.69
29239;BME280;16267;48.194;11.546;2023-05-23T05:22:39;95782.63;;;18.15;79.58
29239;BME280;16267;48.194;11.546;2023-05-23T05:25:06;95779.28;;;18.20;79.00
29239;BME280;16267;48.194;11.546;2023-05-23T05:27:33;95774.16;;;18.22;79.26
29239;BME280;16267;48.194;11.546;2023-05-23T05:29:59;95777.00;;;18.28;80.12
29239;BME280;16267;48.194;11.546;2023-05-23T05:32:30;95783.03;;;18.32;79.89
29239;BME280;16267;48.194;11.546;2023-05-23T05:34:59;95782.41;;;18.37;79.90
29239;BME280;16267;48.194;11.546;2023-05-23T05:37:25;95777.28;;;18.39;79.59
29239;BME280;16267;48.194;11.546;2023-05-23T05:39:51;95792.09;;;18.38;79.53
29239;BME280;16267;48.194;11.546;2023-05-23T05:42:22;95800.84;;;18.33;79.62
29239;BME280;16267;48.194;11.546;2023-05-23T05:44:48;95807.03;;;18.34;80.47
29239;BME280;16267;48.194;11.546;2023-05-23T05:47:14;95804.78;;;18.32;81.11
29239;BME280;16267;48.194;11.546;2023-05-23T05:49:40;95802.06;;;18.32;80.95
29239;BME280;16267;48.194;11.546;2023-05-23T05:52:07;95802.94;;;18.38;81.00
29239;BME280;16267;48.194;11.546;2023-05-23T05:54:33;95808.19;;;18.51;81.02
29239;BME280;16267;48.194;11.546;2023-05-23T05:56:58;95799.28;;;18.60;80.94
29239;BME280;16267;48.194;11.546;2023-05-23T05:59:24;95803.06;;;18.62;79.87
29239;BME280;16267;48.194;11.546;2023-05-23T06:01:51;95798.78;;;18.80;80.47
29239;BME280;16267;48.194;11.546;2023-05-23T06:04:17;95792.41;;;18.92;80.13
29239;BME280;16267;48.194;11.546;2023-05-23T06:06:43;95798.31;;;18.90;79.26
29239;BME280;16267;48.194;11.546;2023-05-23T06:09:09;95799.06;;;18.91;79.80
29239;BME280;16267;48.194;11.546;2023-05-23T06:11:35;95807.09;;;18.85;79.25
29239;BME280;16267;48.194;11.546;2023-05-23T06:14:06;95803.63;;;18.85;79.71
29239;BME280;16267;48.194;11.546;2023-05-23T06:16:32;95802.88;;;18.75;79.58
29239;BME280;16267;48.194;11.546;2023-05-23T06:18:58;95807.88;;;18.77;79.01
29239;BME280;16267;48.194;11.546;2023-05-23T06:21:23;95808.75;;;18.83;80.31
29239;BME280;16267;48.194;11.546;2023-05-23T06:23:49;95799.63;;;18.95;80.28
29239;BME280;16267;48.194;11.546;2023-05-23T06:26:15;95804.63;;;18.97;80.62
29239;BME280;16267;48.194;11.546;2023-05-23T06:28:41;95806.69;;;19.11;80.35
29239;BME280;16267;48.194;11.546;2023-05-23T06:31:07;95808.91;;;19.22;79.70
29239;BME280;16267;48.194;11.546;2023-05-23T06:33:36;95811.09;;;19.32;79.94
29239;BME280;16267;48.194;11.546;2023-05-23T06:36:01;95814.41;;;19.36;78.95
29239;BME280;16267;48.194;11.546;2023-05-23T06:38:30;95816.31;;;19.45;78.30
29239;BME280;16267;48.194;11.546;2023-05-23T06:40:58;95822.34;;;19.49;78.30
29239;BME280;16267;48.194;11.546;2023-05-23T06:43:24;95820.97;;;19.54;78.68
29239;BME280;16267;48.194;11.546;2023-05-23T06:45:51;95824.56;;;19.60;77.70
29239;BME280;16267;48.194;11.546;2023-05-23T06:48:16;95827.44;;;19.66;77.68
29239;BME280;16267;48.194;11.546;2023-05-23T06:50:42;95823.59;;;19.72;77.29
29239;BME280;16267;48.194;11.546;2023-05-23T06:53:08;95827.44;;;19.66;77.02
29239;BME280;16267;48.194;11.546;2023-05-23T06:55:34;95832.88;;;19.56;76.32
29239;BME280;16267;48.194;11.546;2023-05-23T06:58:00;95827.00;;;19.58;77.00
29239;BME280;16267;48.194;11.546;2023-05-23T07:00:31;95832.13;;;19.56;76.81
29239;BME280;16267;48.194;11.546;2023-05-23T07:02:57;95831.50;;;19.61;77.98
29239;BME280;16267;48.194;11.546;2023-05-23T07:05:27;95829.53;;;19.61;77.98
29239;BME280;16267;48.194;11.546;2023-05-23T07:07:53;95822.84;;;19.72;78.30
29239;BME280;16267;48.194;11.546;2023-05-23T07:10:20;95823.41;;;19.76;78.12
29239;BME280;16267;48.194;11.546;2023-05-23T07:12:46;95827.47;;;19.80;78.34
29239;BME280;16267;48.194;11.546;2023-05-23T07:15:12;95829.78;;;19.73;76.44
29239;BME280;16267;48.194;11.546;2023-05-23T07:17:39;95838.72;;;19.73;76.89
29239;BME280;16267;48.194;11.546;2023-05-23T07:20:06;95844.94;;;19.65;77.00
29239;BME280;16267;48.194;11.546;2023-05-23T07:22:32;95849.50;;;19.68;76.59
29239;BME280;16267;48.194;11.546;2023-05-23T07:24:58;95847.38;;;19.63;76.66
29239;BME280;16267;48.194;11.546;2023-05-23T07:27:25;95854.72;;;19.47;76.74
29239;BME280;16267;48.194;11.546;2023-05-23T07:29:51;95852.41;;;19.55;77.54
29239;BME280;16267;48.194;11.546;2023-05-23T07:32:17;95848.34;;;19.50;77.51
29239;BME280;16267;48.194;11.546;2023-05-23T07:34:43;95849.28;;;19.47;77.71
29239;BME280;16267;48.194;11.546;2023-05-23T07:37:09;95846.09;;;19.49;77.63
29239;BME280;16267;48.194;11.546;2023-05-23T07:39:35;95845.75;;;19.56;78.38
29239;BME280;16267;48.194;11.546;2023-05-23T07:42:00;95847.72;;;19.55;78.70
29239;BME280;16267;48.194;11.546;2023-05-23T07:44:27;95843.50;;;19.54;78.43
29239;BME280;16267;48.194;11.546;2023-05-23T07:46:53;95847.38;;;19.63;78.23
29239;BME280;16267;48.194;11.546;2023-05-23T07:49:19;95846.00;;;19.67;78.53
29239;BME280;16267;48.194;11.546;2023-05-23T07:51:45;95846.97;;;19.55;78.21
29239;BME280;16267;48.194;11.546;2023-05-23T07:54:11;95849.50;;;19.68;78.83
29239;BME280;16267;48.194;11.546;2023-05-23T07:56:37;95847.81;;;19.70;78.15
29239;BME280;16267;48.194;11.546;2023-05-23T07:59:05;95850.53;;;19.70;78.54
29239;BME280;16267;48.194;11.546;2023-05-23T08:01:32;95850.19;;;19.77;78.26
29239;BME280;16267;48.194;11.546;2023-05-23T08:03:58;95847.28;;;19.81;78.53
29239;BME280;16267;48.194;11.546;2023-05-23T08:06:24;95851.22;;;19.80;77.53
29239;BME280;16267;48.194;11.546;2023-05-23T08:08:50;95848.50;;;19.80;77.47
29239;BME280;16267;48.194;11.546;2023-05-23T08:11:16;95860.91;;;19.81;77.21
29239;BME280;16267;48.194;11.546;2023-05-23T08:13:41;95859.81;;;19.88;77.03
29239;BME280;16267;48.194;11.546;2023-05-23T08:16:07;95852.09;;;19.86;76.92
29239;BME280;16267;48.194;11.546;2023-05-23T08:18:33;95858.28;;;19.87;75.64
29239;BME280;16267;48.194;11.546;2023-05-23T08:20:58;95859.63;;;19.91;76.21
29239;BME280;16267;48.194;11.546;2023-05-23T08:23:24;95862.97;;;19.86;76.00
29239;BME280;16267;48.194;11.546;2023-05-23T08:25:51;95861.59;;;19.91;76.34
29239;BME280;16267;48.194;11.546;2023-05-23T08:28:17;95859.81;;;19.88;75.32
29239;BME280;16267;48.194;11.546;2023-05-23T08:30:42;95870.22;;;19.89;75.93
29239;BME280;16267;48.194;11.546;2023-05-23T08:33:08;95863.84;;;19.92;76.07
29239;BME280;16267;48.194;11.546;2023-05-23T08:35:34;95866.69;;;19.98;75.84
29239;BME280;16267;48.194;11.546;2023-05-23T08:38:04;95874.75;;;19.92;75.15
29239;BME280;16267;48.194;11.546;2023-05-23T08:40:30;95872.94;;;19.89;74.81
29239;BME280;16267;48.194;11.546;2023-05-23T08:42:57;95870.63;;;19.97;74.58
29239;BME280;16267;48.194;11.546;2023-05-23T08:45:23;95873.66;;;19.99;74.57
29239;BME280;16267;48.194;11.546;2023-05-23T08:47:50;95869.63;;;20.09;75.33
29239;BME280;16267;48.194;11.546;2023-05-23T08:50:17;95872.72;;;20.02;74.15
29239;BME280;16267;48.194;11.546;2023-05-23T08:52:59;95872.09;;;20.07;74.75
29239;BME280;16267;48.194;11.546;2023-05-23T08:55:27;95875.38;;;20.11;73.93
29239;BME280;16267;48.194;11.546;2023-05-23T08:57:55;95875.78;;;20.19;74.16
29239;BME280;16267;48.194;11.546;2023-05-23T09:00:23;95872.69;;;20.26;73.85
29239;BME280;16267;48.194;11.546;2023-05-23T09:02:49;95876.72;;;20.31;74.76
29239;BME280;16267;48.194;11.546;2023-05-23T09:05:16;95884.81;;;20.25;75.13
29239;BME280;16267;48.194;11.546;2023-05-23T09:07:44;95887.72;;;20.21;74.87
29239;BME280;16267;48.194;11.546;2023-05-23T09:10:14;95876.91;;;20.12;74.63
29239;BME280;16267;48.194;11.546;2023-05-23T09:12:44;95890.41;;;20.07;75.43
29239;BME280;16267;48.194;11.546;2023-05-23T09:15:11;95882.38;;;20.03;74.34
29239;BME280;16267;48.194;11.546;2023-05-23T09:17:37;95883.72;;;20.08;73.99
29239;BME280;16267;48.194;11.546;2023-05-23T09:20:11;95880.38;;;20.13;73.92
29239;BME280;16267;48.194;11.546;2023-05-23T09:22:39;95883.66;;;20.17;74.11
29239;BME280;16267;48.194;11.546;2023-05-23T09:25:05;95886.22;;;20.20;74.26
29239;BME280;16267;48.194;11.546;2023-05-23T09:27:31;95883.19;;;20.18;73.61
29239;BME280;16267;48.194;11.546;2023-05-23T09:29:57;95886.97;;;20.21;73.06
29239;BME280;16267;48.194;11.546;2023-05-23T09:32:24;95890.72;;;20.23;74.13
29239;BME280;16267;48.194;11.546;2023-05-23T09:34:59;95898.91;;;20.23;73.90
29239;BME280;16267;48.194;11.546;2023-05-23T09:37:34;95902.31;;;20.09;72.81
29239;BME280;16267;48.194;11.546;2023-05-23T09:40:06;95899.47;;;20.03;73.36
29239;BME280;16267;48.194;11.546;2023-05-23T09:42:33;95898.16;;;19.99;73.21
29239;BME280;16267;48.194;11.546;2023-05-23T09:44:59;95893.66;;;19.96;73.48
29239;BME280;16267;48.194;11.546;2023-05-23T09:47:25;95885.88;;;20.03;73.96
29239;BME280;16267;48.194;11.546;2023-05-23T09:49:51;95900.41;;;20.00;73.40
29239;BME280;16267;48.194;11.546;2023-05-23T09:52:17;95900.53;;;20.06;73.87
29239;BME280;16267;48.194;11.546;2023-05-23T09:54:45;95893.88;;;20.07;73.98
29239;BME280;16267;48.194;11.546;2023-05-23T09:57:14;95898.91;;;19.99;73.68
29239;BME280;16267;48.194;11.546;2023-05-23T09:59:44;95892.09;;;20.04;73.84
29239;BME280;16267;48.194;11.546;2023-05-23T10:02:11;95893.59;;;20.05;74.19
29239;BME280;16267;48.194;11.546;2023-05-23T10:04:39;95893.88;;;20.07;74.78
29239;BME280;16267;48.194;11.546;2023-05-23T10:07:12;95893.47;;;19.99;74.51
29239;BME280;16267;48.194;11.546;2023-05-23T10:09:44;95890.44;;;19.97;75.57
29239;BME280;16267;48.194;11.546;2023-05-23T10:12:51;95892.09;;;20.04;76.43
29239;BME280;16267;48.194;11.546;2023-05-23T10:15:18;95889.94;;;20.08;74.94
29239;BME280;16267;48.194;11.546;2023-05-23T10:17:56;95888.25;;;20.11;73.92
29239;BME280;16267;48.194;11.546;2023-05-23T10:20:29;95894.09;;;20.18;74.23
29239;BME280;16267;48.194;11.546;2023-05-23T10:23:02;95886.22;;;20.20;73.80
29239;BME280;16267;48.194;11.546;2023-05-23T10:25:29;95891.00;;;20.25;73.88
29239;BME280;16267;48.194;11.546;2023-05-23T10:27:58;95880.41;;;20.27;74.69
29239;BME280;16267;48.194;11.546;2023-05-23T10:30:27;95876.19;;;20.26;73.90
29239;BME280;16267;48.194;11.546;2023-05-23T10:32:54;95875.03;;;20.18;73.64
29239;BME280;16267;48.194;11.546;2023-05-23T10:41:22;95868.44;;;20.25;73.41
29239;BME280;16267;48.194;11.546;2023-05-23T10:46:19;95864.25;;;20.39;71.97
29239;BME280;16267;48.194;11.546;2023-05-23T10:48:46;95862.75;;;20.53;72.88
29239;BME280;16267;48.194;11.546;2023-05-23T10:51:13;95863.72;;;20.64;71.08
29239;BME280;16267;48.194;11.546;2023-05-23T10:53:44;95866.66;;;20.76;70.44
29239;BME280;16267;48.194;11.546;2023-05-23T10:56:21;95859.53;;;20.93;70.03
29239;BME280;16267;48.194;11.546;2023-05-23T10:58:53;95861.28;;;21.11;69.41
29239;BME280;16267;48.194;11.546;2023-05-23T11:01:19;95862.41;;;21.19;65.34
29239;BME280;16267;48.194;11.546;2023-05-23T11:09:15;95857.66;;;21.49;64.18
29239;BME280;16267;48.194;11.546;2023-05-23T11:17:14;95856.97;;;21.90;62.90
29239;BME280;16267;48.194;11.546;2023-05-23T11:20:03;95847.13;;;21.98;61.56
29239;BME280;16267;48.194;11.546;2023-05-23T11:22:33;95839.50;;;22.08;61.61
29239;BME280;16267;48.194;11.546;2023-05-23T11:25:01;95841.34;;;22.16;61.52
29239;BME280;16267;48.194;11.546;2023-05-23T11:27:39;95837.50;;;22.23;60.50
29239;BME280;16267;48.194;11.546;2023-05-23T11:30:11;95834.38;;;22.36;62.26
29239;BME280;16267;48.194;11.546;2023-05-23T11:32:51;95839.72;;;22.45;61.72
29239;BME280;16267;48.194;11.546;2023-05-23T11:35:17;95842.44;;;22.45;61.43
29239;BME280;16267;48.194;11.546;2023-05-23T11:37:43;95835.19;;;22.42;59.72
29239;BME280;16267;48.194;11.546;2023-05-23T11:42:57;95837.56;;;22.55;58.89
29239;BME280;16267;48.194;11.546;2023-05-23T11:45:24;95836.59;;;22.58;60.09
29239;BME280;16267;48.194;11.546;2023-05-23T11:47:50;95833.16;;;22.63;59.83
29239;BME280;16267;48.194;11.546;2023-05-23T11:50:16;95831.47;;;22.71;59.48
29239;BME280;16267;48.194;11.546;2023-05-23T11:52:43;95833.03;;;22.78;59.88
29239;BME280;16267;48.194;11.546;2023-05-23T11:55:09;95823.06;;;22.75;58.71
29239;BME280;16267;48.194;11.546;2023-05-23T11:57:38;95827.78;;;22.74;59.59
29239;BME280;16267;48.194;11.546;2023-05-23T12:00:08;95823.75;;;22.69;58.77
29239;BME280;16267;48.194;11.546;2023-05-23T12:02:44;95828.69;;;22.65;57.90
29239;BME280;16267;48.194;11.546;2023-05-23T12:05:13;95823.97;;;22.66;58.55
29239;BME280;16267;48.194;11.546;2023-05-23T12:07:44;95820.06;;;22.73;59.11
29239;BME280;16267;48.194;11.546;2023-05-23T12:10:10;95815.16;;;22.82;60.16
29239;BME280;16267;48.194;11.546;2023-05-23T12:12:40;95824.91;;;22.89;60.76
29239;BME280;16267;48.194;11.546;2023-05-23T12:15:08;95828.00;;;22.97;60.03
29239;BME280;16267;48.194;11.546;2023-05-23T12:17:36;95823.81;;;23.01;57.90
29239;BME280;16267;48.194;11.546;2023-05-23T12:20:06;95822.88;;;23.10;58.44
29239;BME280;16267;48.194;11.546;2023-05-23T12:22:32;95820.31;;;23.01;57.49
29239;BME280;16267;48.194;11.546;2023-05-23T12:24:58;95828.53;;;23.01;58.47
29239;BME280;16267;48.194;11.546;2023-05-23T12:27:34;95824.50;;;22.96;58.23
29239;BME280;16267;48.194;11.546;2023-05-23T12:30:13;95830.91;;;22.93;56.87
29239;BME280;16267;48.194;11.546;2023-05-23T12:32:44;95836.81;;;22.86;55.74
29239;BME280;16267;48.194;11.546;2023-05-23T12:35:13;95834.84;;;22.86;55.66
29239;BME280;16267;48.194;11.546;2023-05-23T12:37:45;95832.38;;;22.88;55.90
29239;BME280;16267;48.194;11.546;2023-05-23T12:40:16;95838.59;;;22.89;56.26
29239;BME280;16267;48.194;11.546;2023-05-23T12:42:54;95835.09;;;22.88;56.47
29239;BME280;16267;48.194;11.546;2023-05-23T12:45:40;95843.66;;;22.96;57.41
29239;BME280;16267;48.194;11.546;2023-05-23T12:48:06;95841.78;;;22.82;56.14
29239;BME280;16267;48.194;11.546;2023-05-23T12:50:32;95838.81;;;22.85;57.77
29239;BME280;16267;48.194;11.546;2023-05-23T12:52:58;95838.75;;;22.80;57.16
29239;BME280;16267;48.194;11.546;2023-05-23T12:55:24;95839.31;;;22.84;57.41
29239;BME280;16267;48.194;11.546;2023-05-23T12:57:49;95836.81;;;22.86;57.31
29239;BME280;16267;48.194;11.546;2023-05-23T13:00:16;95837.84;;;22.88;58.07
29239;BME280;16267;48.194;11.546;2023-05-23T13:02:42;95841.13;;;22.92;58.41
29239;BME280;16267;48.194;11.546;2023-05-23T13:05:08;95838.19;;;22.96;58.35
29239;BME280;16267;48.194;11.546;2023-05-23T13:07:34;95835.34;;;22.85;56.42
29239;BME280;16267;48.194;11.546;2023-05-23T13:10:01;95828.94;;;22.93;57.18
29239;BME280;16267;48.194;11.546;2023-05-23T13:12:27;95843.00;;;22.81;56.26
29239;BME280;16267;48.194;11.546;2023-05-23T13:14:53;95830.09;;;22.81;55.76
29239;BME280;16267;48.194;11.546;2023-05-23T13:17:19;95829.31;;;22.81;56.06
29239;BME280;16267;48.194;11.546;2023-05-23T13:19:44;95824.88;;;22.83;56.77